createdAt,value
2019-06-20T00:01:01.559Z,99.9
2019-06-20T00:02:08.880Z,99.9
2019-06-20T00:03:16.128Z,99.9
2019-06-20T00:04:23.353Z,99.9
2019-06-20T00:05:30.590Z,99.9
2019-06-20T00:06:37.817Z,99.9
2019-06-20T00:07:45.084Z,99.9
2019-06-20T00:08:52.296Z,99.9
2019-06-20T00:09:59.529Z,99.9
2019-06-20T00:11:06.750Z,99.9
2019-06-20T00:12:13.981Z,99.9
2019-06-20T00:13:21.205Z,99.9
2019-06-20T00:14:28.150Z,99.9
2019-06-20T00:15:35.369Z,99.9
2019-06-20T00:16:42.605Z,99.9
2019-06-20T00:17:49.832Z,99.9
2019-06-20T00:18:57.109Z,99.9
2019-06-20T00:20:04.068Z,99.9
2019-06-20T00:21:11.035Z,99.9
2019-06-20T00:22:18.025Z,99.9
2019-06-20T00:23:24.998Z,99.9
2019-06-20T00:24:32.227Z,99.9
2019-06-20T00:25:39.540Z,99.9
2019-06-20T00:26:46.761Z,99.9
2019-06-20T00:27:53.993Z,99.9
2019-06-20T00:29:01.248Z,99.9
2019-06-20T00:30:08.202Z,99.9
2019-06-20T00:31:15.423Z,99.9
2019-06-20T00:32:22.701Z,99.9
2019-06-20T00:33:29.921Z,99.9
2019-06-20T00:34:36.874Z,99.9
2019-06-20T00:35:44.101Z,99.9
2019-06-20T00:36:51.516Z,99.9
2019-06-20T00:37:58.947Z,99.9
2019-06-20T00:39:06.200Z,99.9
2019-06-20T00:40:13.411Z,99.9
2019-06-20T00:41:20.667Z,99.9
2019-06-20T00:42:27.883Z,99.9
2019-06-20T00:43:34.836Z,99.9
2019-06-20T00:44:42.057Z,99.9
2019-06-20T00:45:49.285Z,99.9
2019-06-20T00:46:55.960Z,99.9
2019-06-20T00:48:03.209Z,99.9
2019-06-20T00:49:10.473Z,99.9
2019-06-20T00:50:17.710Z,99.9
2019-06-20T00:51:25.071Z,99.9
2019-06-20T00:52:32.297Z,99.9
2019-06-20T00:53:39.504Z,99.9
2019-06-20T00:54:46.738Z,99.9
2019-06-20T00:55:53.958Z,99.9
2019-06-20T00:57:01.194Z,99.9
2019-06-20T00:58:08.522Z,99.9
2019-06-20T00:59:15.761Z,99.9
2019-06-20T01:00:22.980Z,99.9
2019-06-20T01:01:30.214Z,99.9
2019-06-20T01:02:37.439Z,99.9
2019-06-20T01:03:44.673Z,99.9
2019-06-20T01:04:51.908Z,99.9
2019-06-20T01:05:58.859Z,99.9
2019-06-20T01:07:05.805Z,99.9
2019-06-20T01:08:13.075Z,99.9
2019-06-20T01:09:20.286Z,99.9
2019-06-20T01:10:27.523Z,99.9
2019-06-20T01:11:34.481Z,99.9
2019-06-20T01:12:41.438Z,99.9
2019-06-20T01:13:48.110Z,99.9
2019-06-20T01:14:58.578Z,99.9
2019-06-20T01:16:05.805Z,99.9
2019-06-20T01:17:13.067Z,99.9
2019-06-20T01:18:20.446Z,99.9
2019-06-20T01:19:27.495Z,99.9
2019-06-20T01:20:34.714Z,99.9
2019-06-20T01:21:42.000Z,99.9
2019-06-20T01:22:48.937Z,99.9
2019-06-20T01:23:56.165Z,99.9
2019-06-20T01:25:03.371Z,99.9
2019-06-20T01:26:10.637Z,99.9
2019-06-20T01:27:17.587Z,99.9
2019-06-20T01:28:24.822Z,99.9
2019-06-20T01:29:32.025Z,99.9
2019-06-20T01:30:39.254Z,99.9
2019-06-20T01:31:46.198Z,99.9
2019-06-20T01:32:53.421Z,99.9
2019-06-20T01:34:00.638Z,99.9
2019-06-20T01:35:07.608Z,99.9
2019-06-20T01:36:14.279Z,99.9
2019-06-20T01:37:21.506Z,99.9
2019-06-20T01:38:28.461Z,99.9
2019-06-20T01:39:35.681Z,99.9
2019-06-20T01:40:42.899Z,99.9
2019-06-20T01:41:49.859Z,99.9
2019-06-20T01:42:57.081Z,99.9
2019-06-20T01:44:04.313Z,99.9
2019-06-20T01:45:11.538Z,99.9
2019-06-20T01:46:18.767Z,99.9
2019-06-20T01:47:25.986Z,99.9
2019-06-20T01:48:33.229Z,99.9
2019-06-20T01:49:40.456Z,99.9
2019-06-20T01:50:47.678Z,99.9
2019-06-20T01:51:54.918Z,99.9
2019-06-20T01:53:02.198Z,99.9
2019-06-20T01:54:09.420Z,99.9
2019-06-20T01:55:16.650Z,99.9
2019-06-20T01:56:23.600Z,99.9
2019-06-20T01:57:30.828Z,99.9
2019-06-20T01:58:38.046Z,99.9
2019-06-20T01:59:45.276Z,99.9
2019-06-20T02:00:52.222Z,99.9
2019-06-20T02:01:59.473Z,99.9
2019-06-20T02:03:06.695Z,99.9
2019-06-20T02:04:13.923Z,99.9
2019-06-20T02:05:21.147Z,99.9
2019-06-20T02:06:28.139Z,99.9
2019-06-20T02:07:35.101Z,99.9
2019-06-20T02:08:42.065Z,99.9
2019-06-20T02:09:49.324Z,99.9
2019-06-20T02:10:56.581Z,99.9
2019-06-20T02:12:03.762Z,99.9
2019-06-20T02:13:10.997Z,99.9
2019-06-20T02:14:18.206Z,99.9
2019-06-20T02:15:25.441Z,99.9
2019-06-20T02:16:32.680Z,99.9
2019-06-20T02:17:39.659Z,99.9
2019-06-20T02:18:46.894Z,99.9
2019-06-20T02:19:53.579Z,99.9
2019-06-20T02:21:00.806Z,99.9
2019-06-20T02:22:08.053Z,99.9
2019-06-20T02:23:15.266Z,99.9
2019-06-20T02:24:22.534Z,99.9
2019-06-20T02:25:29.483Z,99.9
2019-06-20T02:26:36.441Z,99.9
2019-06-20T02:27:43.661Z,99.9
2019-06-20T02:28:50.886Z,99.9
2019-06-20T02:29:58.105Z,99.9
2019-06-20T02:31:04.813Z,99.9
2019-06-20T02:32:12.036Z,99.9
2019-06-20T02:33:18.993Z,99.9
2019-06-20T02:34:26.214Z,99.9
2019-06-20T02:35:33.443Z,99.9
2019-06-20T02:36:40.381Z,99.9
2019-06-20T02:37:47.619Z,99.9
2019-06-20T02:38:54.575Z,99.9
2019-06-20T02:40:01.545Z,99.9
2019-06-20T02:41:08.773Z,99.9
2019-06-20T02:42:15.729Z,99.9
2019-06-20T02:43:22.948Z,99.9
2019-06-20T02:44:30.754Z,99.9
2019-06-20T02:45:38.122Z,99.9
2019-06-20T02:46:45.106Z,99.9
2019-06-20T02:47:52.311Z,99.9
2019-06-20T02:48:59.546Z,99.9
2019-06-20T02:50:06.486Z,99.9
2019-06-20T02:51:13.434Z,99.9
2019-06-20T02:52:20.651Z,99.9
2019-06-20T02:53:27.345Z,99.9
2019-06-20T02:54:34.309Z,99.9
2019-06-20T02:55:41.546Z,99.9
2019-06-20T02:56:48.796Z,99.9
2019-06-20T02:57:56.042Z,99.9
2019-06-20T02:59:03.258Z,99.9
2019-06-20T03:00:10.635Z,99.9
2019-06-20T03:01:17.849Z,99.9
2019-06-20T03:02:24.797Z,99.9
2019-06-20T03:03:32.012Z,99.9
2019-06-20T03:04:39.243Z,99.9
2019-06-20T03:05:46.187Z,99.9
2019-06-20T03:06:53.159Z,99.9
2019-06-20T03:08:00.382Z,99.9
2019-06-20T03:09:07.405Z,99.9
2019-06-20T03:10:14.623Z,99.9
2019-06-20T03:11:21.867Z,99.9
2019-06-20T03:12:29.079Z,99.9
2019-06-20T03:13:36.035Z,99.9
2019-06-20T03:14:45.634Z,99.9
2019-06-20T03:15:53.112Z,99.9
2019-06-20T03:17:00.334Z,99.9
2019-06-20T03:18:07.377Z,99.9
2019-06-20T03:19:14.585Z,99.9
2019-06-20T03:20:21.823Z,99.9
2019-06-20T03:21:29.040Z,99.9
2019-06-20T03:22:36.269Z,99.9
2019-06-20T03:23:42.976Z,99.9
2019-06-20T03:24:50.213Z,99.9
2019-06-20T03:25:57.230Z,99.9
2019-06-20T03:27:04.460Z,99.9
2019-06-20T03:28:11.677Z,99.9
2019-06-20T03:29:18.915Z,99.9
2019-06-20T03:30:26.130Z,99.9
2019-06-20T03:31:33.089Z,99.9
2019-06-20T03:32:40.391Z,99.9
2019-06-20T03:33:47.623Z,99.9
2019-06-20T03:34:54.584Z,99.9
2019-06-20T03:36:01.655Z,99.9
2019-06-20T03:37:08.874Z,99.9
2019-06-20T03:38:16.104Z,99.9
2019-06-20T03:39:23.321Z,99.9
2019-06-20T03:40:30.549Z,99.9
2019-06-20T03:41:37.762Z,99.9
2019-06-20T03:42:44.984Z,99.9
2019-06-20T03:43:52.235Z,99.9
2019-06-20T03:45:02.370Z,99.9
2019-06-20T03:46:09.878Z,99.9
2019-06-20T03:47:17.110Z,99.9
2019-06-20T03:48:24.348Z,99.9
2019-06-20T03:49:31.581Z,99.9
2019-06-20T03:50:38.804Z,99.9
2019-06-20T03:51:46.027Z,99.9
2019-06-20T03:52:53.247Z,99.9
2019-06-20T03:54:00.475Z,99.9
2019-06-20T03:55:07.684Z,99.9
2019-06-20T03:56:14.915Z,99.9
2019-06-20T03:57:22.126Z,99.9
2019-06-20T03:58:29.359Z,99.9
2019-06-20T03:59:36.575Z,99.9
2019-06-20T04:00:43.823Z,99.9
2019-06-20T04:01:51.042Z,99.9
2019-06-20T04:02:58.098Z,99.9
2019-06-20T04:04:05.315Z,99.9
2019-06-20T04:05:12.547Z,99.9
2019-06-20T04:06:19.777Z,99.9
2019-06-20T04:07:27.010Z,99.9
2019-06-20T04:08:34.228Z,99.9
2019-06-20T04:09:41.189Z,99.9
2019-06-20T04:10:48.148Z,99.9
2019-06-20T04:11:55.370Z,99.9
2019-06-20T04:13:02.315Z,99.9
2019-06-20T04:14:09.536Z,99.9
2019-06-20T04:15:19.264Z,99.9
2019-06-20T04:16:26.833Z,99.9
2019-06-20T04:17:34.108Z,99.9
2019-06-20T04:18:41.334Z,99.9
2019-06-20T04:19:48.555Z,99.9
2019-06-20T04:20:55.973Z,99.9
2019-06-20T04:22:03.228Z,99.9
2019-06-20T04:23:10.463Z,99.9
2019-06-20T04:24:17.679Z,99.9
2019-06-20T04:25:24.919Z,99.9
2019-06-20T04:26:32.138Z,99.9
2019-06-20T04:27:39.360Z,99.9
2019-06-20T04:28:46.577Z,99.9
2019-06-20T04:29:53.818Z,99.9
2019-06-20T04:31:01.038Z,99.9
2019-06-20T04:32:08.264Z,99.9
2019-06-20T04:33:15.475Z,99.9
2019-06-20T04:34:22.707Z,99.9
2019-06-20T04:35:29.675Z,99.9
2019-06-20T04:36:36.911Z,99.9
2019-06-20T04:37:44.119Z,99.9
2019-06-20T04:38:51.346Z,99.9
2019-06-20T04:39:58.566Z,99.9
2019-06-20T04:41:05.818Z,99.9
2019-06-20T04:42:13.030Z,99.9
2019-06-20T04:43:20.277Z,99.9
2019-06-20T04:44:27.491Z,99.9
2019-06-20T04:45:35.729Z,99.9
2019-06-20T04:46:43.042Z,99.9
2019-06-20T04:47:50.010Z,99.9
2019-06-20T04:48:57.454Z,99.9
2019-06-20T04:50:04.692Z,99.9
2019-06-20T04:51:11.912Z,99.9
2019-06-20T04:52:18.861Z,99.9
2019-06-20T04:53:26.080Z,99.9
2019-06-20T04:54:33.028Z,99.9
2019-06-20T04:55:40.295Z,99.9
2019-06-20T04:56:47.523Z,99.9
2019-06-20T04:57:54.738Z,99.9
2019-06-20T04:59:02.017Z,99.9
2019-06-20T05:00:09.302Z,99.9
2019-06-20T05:01:16.562Z,99.9
2019-06-20T05:02:23.496Z,99.9
2019-06-20T05:03:30.987Z,99.9
2019-06-20T05:04:38.199Z,99.9
2019-06-20T05:05:45.426Z,99.9
2019-06-20T05:06:52.638Z,99.9
2019-06-20T05:07:59.873Z,99.9
2019-06-20T05:09:07.084Z,99.9
2019-06-20T05:10:14.310Z,99.9
2019-06-20T05:11:21.537Z,99.9
2019-06-20T05:12:28.501Z,99.9
2019-06-20T05:13:35.431Z,99.9
2019-06-20T05:14:42.665Z,99.9
2019-06-20T05:15:52.844Z,99.9
2019-06-20T05:17:00.460Z,99.9
2019-06-20T05:18:07.678Z,99.9
2019-06-20T05:19:14.909Z,99.9
2019-06-20T05:20:22.404Z,99.9
2019-06-20T05:21:29.629Z,99.9
2019-06-20T05:22:36.583Z,99.9
2019-06-20T05:23:43.800Z,99.9
2019-06-20T05:24:51.020Z,99.9
2019-06-20T05:25:58.247Z,99.9
2019-06-20T05:27:05.473Z,99.9
2019-06-20T05:28:12.436Z,99.9
2019-06-20T05:29:19.672Z,99.9
2019-06-20T05:30:26.906Z,99.9
2019-06-20T05:31:34.127Z,99.9
2019-06-20T05:32:41.356Z,99.9
2019-06-20T05:33:48.568Z,99.9
2019-06-20T05:34:55.799Z,99.9
2019-06-20T05:36:03.026Z,99.9
2019-06-20T05:37:09.978Z,99.9
2019-06-20T05:38:17.188Z,99.9
2019-06-20T05:39:24.417Z,99.9
2019-06-20T05:40:31.681Z,99.9
2019-06-20T05:41:43.349Z,99.9
2019-06-20T05:42:50.575Z,99.9
2019-06-20T05:43:58.076Z,99.9
2019-06-20T05:45:05.302Z,99.9
2019-06-20T05:46:12.271Z,99.9
2019-06-20T05:47:19.489Z,99.9
2019-06-20T05:48:26.165Z,99.9
2019-06-20T05:49:33.374Z,99.9
2019-06-20T05:50:40.614Z,99.9
2019-06-20T05:51:47.553Z,99.9
2019-06-20T05:52:54.511Z,99.9
2019-06-20T05:54:01.727Z,99.9
2019-06-20T05:55:08.681Z,99.9
2019-06-20T05:56:15.901Z,99.9
2019-06-20T05:57:22.855Z,99.9
2019-06-20T05:58:30.097Z,99.9
2019-06-20T05:59:37.340Z,99.9
2019-06-20T06:00:44.553Z,99.9
2019-06-20T06:01:51.829Z,99.9
2019-06-20T06:03:06.730Z,99.9
2019-06-20T06:04:14.230Z,99.9
2019-06-20T06:05:20.902Z,99.9
2019-06-20T06:06:28.183Z,99.9
2019-06-20T06:07:36.221Z,99.9
2019-06-20T06:08:43.448Z,99.9
2019-06-20T06:09:50.663Z,99.9
2019-06-20T06:10:57.891Z,99.9
2019-06-20T06:12:05.625Z,99.9
2019-06-20T06:13:12.857Z,99.9
2019-06-20T06:14:20.071Z,99.9
2019-06-20T06:15:27.299Z,99.9
2019-06-20T06:16:33.982Z,99.9
2019-06-20T06:17:42.088Z,99.9
2019-06-20T06:18:49.382Z,99.9
2019-06-20T06:19:56.609Z,99.9
2019-06-20T06:21:03.610Z,99.9
2019-06-20T06:22:10.839Z,99.9
2019-06-20T06:23:17.523Z,99.9
2019-06-20T06:24:24.758Z,99.9
2019-06-20T06:25:31.737Z,99.9
2019-06-20T06:26:38.699Z,99.9
2019-06-20T06:27:45.849Z,99.9
2019-06-20T06:28:52.830Z,99.9
2019-06-20T06:30:00.047Z,99.9
2019-06-20T06:31:07.331Z,99.9
2019-06-20T06:32:14.551Z,99.9
2019-06-20T06:33:25.882Z,99.9
2019-06-20T06:34:33.106Z,99.9
2019-06-20T06:35:40.346Z,99.9
2019-06-20T06:36:47.598Z,99.9
2019-06-20T06:37:54.857Z,99.9
2019-06-20T06:39:02.086Z,99.9
2019-06-20T06:40:09.301Z,99.9
2019-06-20T06:41:16.537Z,99.9
2019-06-20T06:42:23.483Z,99.9
2019-06-20T06:43:30.713Z,99.9
2019-06-20T06:44:37.969Z,99.9
2019-06-20T06:45:45.182Z,99.9
2019-06-20T06:46:55.773Z,99.9
2019-06-20T06:48:06.625Z,99.9
2019-06-20T06:49:13.580Z,99.9
2019-06-20T06:50:20.805Z,99.9
2019-06-20T06:51:28.037Z,99.9
2019-06-20T06:52:35.251Z,99.9
2019-06-20T06:53:42.529Z,99.9
2019-06-20T06:54:49.758Z,99.9
2019-06-20T06:55:56.742Z,99.9
2019-06-20T06:57:03.951Z,99.9
2019-06-20T06:58:11.192Z,99.9
2019-06-20T06:59:18.406Z,99.9
2019-06-20T07:00:25.644Z,99.9
2019-06-20T07:01:32.861Z,99.9
2019-06-20T07:02:40.088Z,99.9
2019-06-20T07:03:47.502Z,99.9
2019-06-20T07:04:54.745Z,99.9
2019-06-20T07:06:01.972Z,99.9
2019-06-20T07:07:09.317Z,99.9
2019-06-20T07:08:16.556Z,99.9
2019-06-20T07:09:23.784Z,99.9
2019-06-20T07:10:30.739Z,99.9
2019-06-20T07:11:37.698Z,99.9
2019-06-20T07:12:44.764Z,99.9
2019-06-20T07:13:52.006Z,99.9
2019-06-20T07:14:59.247Z,99.9
2019-06-20T07:16:06.543Z,99.9
2019-06-20T07:17:13.796Z,99.9
2019-06-20T07:18:21.041Z,99.9
2019-06-20T07:19:28.351Z,99.9
2019-06-20T07:20:35.611Z,99.9
2019-06-20T07:21:42.825Z,99.9
2019-06-20T07:22:50.053Z,99.9
2019-06-20T07:23:57.302Z,99.9
2019-06-20T07:25:04.577Z,99.9
2019-06-20T07:26:11.789Z,99.9
2019-06-20T07:27:19.017Z,99.9
2019-06-20T07:28:26.232Z,99.9
2019-06-20T07:29:33.497Z,99.9
2019-06-20T07:30:40.718Z,99.9
2019-06-20T07:31:47.681Z,99.9
2019-06-20T07:32:54.898Z,99.9
2019-06-20T07:34:02.131Z,99.9
2019-06-20T07:35:09.350Z,99.9
2019-06-20T07:36:16.593Z,99.9
2019-06-20T07:37:23.813Z,99.9
2019-06-20T07:38:31.059Z,99.9
2019-06-20T07:39:38.297Z,99.9
2019-06-20T07:40:45.530Z,99.9
2019-06-20T07:41:52.777Z,99.9
2019-06-20T07:43:00.058Z,99.9
2019-06-20T07:44:07.278Z,99.9
2019-06-20T07:45:14.552Z,99.9
2019-06-20T07:46:21.775Z,99.9
2019-06-20T07:47:29.024Z,99.9
2019-06-20T07:48:36.239Z,99.9
2019-06-20T07:49:43.475Z,99.9
2019-06-20T07:50:50.704Z,99.9
2019-06-20T07:51:57.933Z,99.9
2019-06-20T07:53:05.142Z,99.9
2019-06-20T07:54:12.384Z,99.9
2019-06-20T07:55:19.603Z,99.9
2019-06-20T07:56:26.841Z,99.9
2019-06-20T07:57:34.056Z,99.9
2019-06-20T07:58:41.293Z,99.9
2019-06-20T07:59:48.525Z,99.9
2019-06-20T08:00:55.531Z,99.9
2019-06-20T08:02:02.510Z,99.9
2019-06-20T08:03:09.494Z,99.9
2019-06-20T08:04:16.843Z,99.9
2019-06-20T08:05:24.120Z,99.9
2019-06-20T08:06:31.354Z,99.9
2019-06-20T08:07:38.318Z,99.9
2019-06-20T08:08:45.552Z,99.9
2019-06-20T08:09:52.240Z,99.9
2019-06-20T08:10:59.195Z,99.9
2019-06-20T08:12:06.508Z,99.9
2019-06-20T08:13:13.793Z,99.9
2019-06-20T08:14:21.026Z,99.9
2019-06-20T08:15:28.249Z,99.9
2019-06-20T08:16:35.519Z,95.3
2019-06-20T08:17:42.791Z,95.6
2019-06-20T08:18:50.414Z,96.5
2019-06-20T08:19:57.367Z,99.9
2019-06-20T08:21:04.704Z,98.9
2019-06-20T08:22:11.914Z,97.7
2019-06-20T08:23:18.677Z,96.4
2019-06-20T08:24:25.634Z,97.7
2019-06-20T08:25:32.875Z,99.9
2019-06-20T08:26:40.099Z,99.9
2019-06-20T08:27:47.325Z,98.8
2019-06-20T08:29:08.111Z,99.9
2019-06-20T08:30:28.122Z,99.5
2019-06-20T08:31:35.382Z,94.9
2019-06-20T08:32:42.624Z,98.8
2019-06-20T08:33:49.866Z,99.9
2019-06-20T08:34:58.786Z,99.9
2019-06-20T08:36:10.271Z,99.9
2019-06-20T08:37:17.501Z,99
2019-06-20T08:38:24.722Z,98.3
2019-06-20T08:39:31.954Z,98.8
2019-06-20T08:40:39.187Z,95.7
2019-06-20T08:41:46.422Z,98.7
2019-06-20T08:42:53.641Z,92.8
2019-06-20T08:44:07.517Z,94.6
2019-06-20T08:45:14.473Z,99.9
2019-06-20T08:46:21.758Z,99.9
2019-06-20T08:47:28.989Z,92.2
2019-06-20T08:48:36.227Z,94.8
2019-06-20T08:49:43.448Z,96.9
2019-06-20T08:50:50.715Z,99.9
2019-06-20T08:53:07.090Z,96.8
2019-06-20T08:54:14.306Z,99.9
2019-06-20T08:55:21.243Z,96.2
2019-06-20T08:56:28.524Z,99.9
2019-06-20T08:57:35.757Z,99.9
2019-06-20T08:58:42.711Z,90.2
2019-06-20T08:59:49.962Z,93.2
2019-06-20T09:00:58.056Z,94.1
2019-06-20T09:02:13.135Z,80.8
2019-06-20T09:03:20.369Z,80.6
2019-06-20T09:04:27.594Z,73.2
2019-06-20T09:05:34.871Z,92.6
2019-06-20T09:06:42.105Z,86.1
2019-06-20T09:07:49.055Z,91.7
2019-06-20T09:08:56.743Z,90.6
2019-06-20T09:10:06.310Z,91.2
2019-06-20T09:11:13.538Z,90.5
2019-06-20T09:12:20.909Z,67.9
2019-06-20T09:13:28.180Z,76.8
2019-06-20T09:14:35.120Z,76.8
2019-06-20T09:15:42.358Z,77.5
2019-06-20T09:16:49.580Z,73.8
2019-06-20T09:17:58.451Z,66.5
2019-06-20T09:19:06.241Z,86.4
2019-06-20T09:20:13.491Z,88.2
2019-06-20T09:21:20.443Z,60
2019-06-20T09:22:27.386Z,41.2
2019-06-20T09:23:35.721Z,37
2019-06-20T09:24:42.808Z,33.7
2019-06-20T09:25:50.860Z,64.7
2019-06-20T09:26:59.338Z,72
2019-06-20T09:28:06.670Z,36.2
2019-06-20T09:29:13.903Z,36.5
2019-06-20T09:30:20.842Z,43.2
2019-06-20T09:31:28.059Z,37.7
2019-06-20T09:32:35.286Z,32.2
2019-06-20T09:33:42.241Z,28
2019-06-20T09:34:51.327Z,42
2019-06-20T09:36:03.915Z,30.5
2019-06-20T09:37:10.961Z,28.7
2019-06-20T09:38:18.192Z,28.9
2019-06-20T09:39:25.439Z,45.6
2019-06-20T09:40:32.646Z,19
2019-06-20T09:41:39.882Z,29.9
2019-06-20T09:42:47.125Z,13.5
2019-06-20T09:43:54.365Z,8.8
2019-06-20T09:45:02.916Z,1
2019-06-20T09:46:10.204Z,10
2019-06-20T09:47:17.458Z,22.4
2019-06-20T09:48:24.682Z,24.4
2019-06-20T09:49:31.910Z,17.9
2019-06-20T09:50:38.848Z,3.6
2019-06-20T09:51:46.087Z,4.7
2019-06-20T09:52:56.569Z,3.8
2019-06-20T09:54:05.186Z,1
2019-06-20T09:55:12.427Z,14.7
2019-06-20T09:56:19.667Z,6.3
2019-06-20T09:57:26.890Z,1
2019-06-20T09:58:34.142Z,1
2019-06-20T09:59:53.456Z,1
2019-06-20T10:01:17.353Z,1
2019-06-20T10:02:24.675Z,1
2019-06-20T10:03:31.954Z,1
2019-06-20T10:04:39.185Z,1
2019-06-20T10:05:47.576Z,1
2019-06-20T10:06:58.776Z,1
2019-06-20T10:08:06.030Z,1
2019-06-20T10:09:13.271Z,1
2019-06-20T10:10:20.585Z,1
2019-06-20T10:11:27.806Z,1
2019-06-20T10:12:35.052Z,1
2019-06-20T10:13:42.283Z,1
2019-06-20T10:14:53.347Z,1
2019-06-20T10:16:02.559Z,1
2019-06-20T10:17:09.882Z,1
2019-06-20T10:18:17.145Z,1
2019-06-20T10:19:24.096Z,1
2019-06-20T10:20:30.773Z,1
2019-06-20T10:21:38.018Z,1
2019-06-20T10:22:45.796Z,1
2019-06-20T10:23:56.774Z,1
2019-06-20T10:25:04.001Z,1
2019-06-20T10:26:10.965Z,1
2019-06-20T10:27:18.183Z,1
2019-06-20T10:28:25.400Z,1
2019-06-20T10:29:32.346Z,1
2019-06-20T10:30:39.588Z,1
2019-06-20T10:31:47.794Z,1
2019-06-20T10:32:57.691Z,1
2019-06-20T10:34:05.047Z,1
2019-06-20T10:35:12.300Z,1
2019-06-20T10:36:18.978Z,1
2019-06-20T10:37:26.208Z,1
2019-06-20T10:38:33.442Z,1
2019-06-20T10:39:40.681Z,1
2019-06-20T10:40:48.035Z,1
2019-06-20T10:41:57.851Z,1
2019-06-20T10:43:05.071Z,1
2019-06-20T10:44:11.778Z,1
2019-06-20T10:45:19.012Z,1
2019-06-20T10:46:26.256Z,1
2019-06-20T10:47:36.003Z,1
2019-06-20T10:48:44.192Z,1
2019-06-20T10:49:53.747Z,1
2019-06-20T10:51:00.703Z,1
2019-06-20T10:52:07.677Z,1
2019-06-20T10:53:14.922Z,1
2019-06-20T10:54:22.148Z,1
2019-06-20T10:55:29.376Z,1
2019-06-20T10:56:36.337Z,1
2019-06-20T10:57:44.484Z,1
2019-06-20T10:58:55.027Z,1
2019-06-20T11:00:02.274Z,1
2019-06-20T11:01:09.239Z,1
2019-06-20T11:02:16.203Z,1
2019-06-20T11:03:23.150Z,1
2019-06-20T11:04:30.363Z,1
2019-06-20T11:05:37.587Z,1
2019-06-20T11:06:49.723Z,1
2019-06-20T11:07:56.975Z,1
2019-06-20T11:09:04.000Z,1
2019-06-20T11:10:11.219Z,1
2019-06-20T11:11:18.175Z,1
2019-06-20T11:12:25.409Z,1
2019-06-20T11:13:31.794Z,1
2019-06-20T11:14:40.290Z,1
2019-06-20T11:15:49.963Z,1
2019-06-20T11:16:57.182Z,1
2019-06-20T11:18:04.148Z,1
2019-06-20T11:19:11.431Z,1
2019-06-20T11:20:18.700Z,1
2019-06-20T11:21:25.933Z,1
2019-06-20T11:22:32.885Z,1
2019-06-20T11:23:40.866Z,1
2019-06-20T11:24:49.281Z,1
2019-06-20T11:25:56.498Z,1
2019-06-20T11:27:03.736Z,1
2019-06-20T11:28:10.697Z,1
2019-06-20T11:29:17.930Z,1
2019-06-20T11:30:25.155Z,1
2019-06-20T11:31:32.092Z,1
2019-06-20T11:32:39.455Z,1
2019-06-20T11:33:48.397Z,1
2019-06-20T11:34:55.674Z,1
2019-06-20T11:36:02.902Z,1
2019-06-20T11:37:09.834Z,1
2019-06-20T11:38:17.123Z,1
2019-06-20T11:39:24.412Z,1
2019-06-20T11:40:31.632Z,1
2019-06-20T11:41:39.567Z,1
2019-06-20T11:42:47.954Z,1
2019-06-20T11:43:55.181Z,1
2019-06-20T11:45:02.420Z,1
2019-06-20T11:46:09.646Z,1
2019-06-20T11:47:16.889Z,1
2019-06-20T11:48:27.290Z,1
2019-06-20T11:49:35.073Z,1
2019-06-20T11:50:44.451Z,1
2019-06-20T11:51:52.873Z,1
2019-06-20T11:53:00.104Z,1
2019-06-20T11:54:07.068Z,1
2019-06-20T11:55:14.294Z,1
2019-06-20T11:56:21.540Z,1
2019-06-20T11:57:28.787Z,1
2019-06-20T11:58:36.007Z,1
2019-06-20T11:59:43.233Z,1
2019-06-20T12:01:02.932Z,1
2019-06-20T12:02:11.045Z,1
2019-06-20T12:03:18.328Z,1
2019-06-20T12:04:25.320Z,1
2019-06-20T12:05:32.656Z,1
2019-06-20T12:06:41.404Z,1
2019-06-20T12:07:51.309Z,1
2019-06-20T12:08:58.544Z,1
2019-06-20T12:10:05.786Z,1
2019-06-20T12:11:12.752Z,1
2019-06-20T12:12:19.996Z,1
2019-06-20T12:13:27.238Z,1
2019-06-20T12:14:34.476Z,1
2019-06-20T12:15:42.816Z,1
2019-06-20T12:16:52.414Z,1
2019-06-20T12:17:59.630Z,1
2019-06-20T12:19:06.864Z,1
2019-06-20T12:20:13.825Z,1
2019-06-20T12:21:21.059Z,1
2019-06-20T12:22:28.020Z,1
2019-06-20T12:23:34.980Z,1
2019-06-20T12:24:42.941Z,1
2019-06-20T12:25:52.515Z,1
2019-06-20T12:26:59.735Z,1
2019-06-20T12:28:06.706Z,1
2019-06-20T12:29:13.944Z,1
2019-06-20T12:30:21.204Z,1
2019-06-20T12:31:28.419Z,1
2019-06-20T12:32:35.651Z,1
2019-06-20T12:33:42.902Z,1
2019-06-20T12:34:51.450Z,1
2019-06-20T12:35:58.669Z,1
2019-06-20T12:37:05.949Z,1
2019-06-20T12:38:15.107Z,1
2019-06-20T12:39:22.463Z,1
2019-06-20T12:40:29.682Z,1
2019-06-20T12:41:36.659Z,1
2019-06-20T12:42:47.027Z,1
2019-06-20T12:43:55.689Z,1
2019-06-20T12:45:02.907Z,1
2019-06-20T12:46:09.864Z,1
2019-06-20T12:47:16.815Z,1
2019-06-20T12:48:24.058Z,1
2019-06-20T12:49:31.288Z,1
2019-06-20T12:50:39.729Z,1
2019-06-20T12:51:49.724Z,1
2019-06-20T12:52:56.953Z,1
2019-06-20T12:54:04.179Z,1
2019-06-20T12:55:11.422Z,1
2019-06-20T12:56:18.668Z,1
2019-06-20T12:57:25.924Z,1
2019-06-20T12:58:33.155Z,1
2019-06-20T12:59:41.285Z,1
2019-06-20T13:00:54.003Z,1
2019-06-20T13:02:01.242Z,1
2019-06-20T13:03:08.473Z,1
2019-06-20T13:04:15.752Z,1
2019-06-20T13:05:22.981Z,1
2019-06-20T13:06:30.217Z,1
2019-06-20T13:07:38.557Z,1
2019-06-20T13:08:50.066Z,1
2019-06-20T13:09:57.289Z,1
2019-06-20T13:11:04.544Z,1
2019-06-20T13:12:11.771Z,1
2019-06-20T13:13:18.999Z,1
2019-06-20T13:14:26.242Z,1
2019-06-20T13:15:33.487Z,1
2019-06-20T13:16:40.656Z,1
2019-06-20T13:17:49.299Z,1
2019-06-20T13:18:56.742Z,1
2019-06-20T13:20:03.757Z,1
2019-06-20T13:21:10.996Z,1
2019-06-20T13:22:18.240Z,1
2019-06-20T13:23:25.462Z,1
2019-06-20T13:24:32.732Z,1
2019-06-20T13:25:40.925Z,1
2019-06-20T13:26:50.856Z,1
2019-06-20T13:27:59.581Z,1
2019-06-20T13:29:06.599Z,1
2019-06-20T13:30:13.837Z,1
2019-06-20T13:31:20.839Z,1
2019-06-20T13:32:28.065Z,1
2019-06-20T13:33:35.302Z,1
2019-06-20T13:34:44.952Z,1
2019-06-20T13:35:55.198Z,1
2019-06-20T13:37:02.135Z,1
2019-06-20T13:38:09.375Z,1
2019-06-20T13:39:16.600Z,1
2019-06-20T13:40:23.868Z,1
2019-06-20T13:41:31.101Z,1
2019-06-20T13:42:38.995Z,1
2019-06-20T13:43:51.967Z,29.4
2019-06-20T13:44:58.935Z,59.1
2019-06-20T13:46:06.179Z,63.3
2019-06-20T13:47:13.147Z,65.4
2019-06-20T13:48:20.094Z,68.8
2019-06-20T13:49:27.348Z,77.1
2019-06-20T13:50:34.600Z,91.9
2019-06-20T13:51:41.985Z,87.4
2019-06-20T13:52:51.681Z,93.9
2019-06-20T13:53:58.908Z,91.5
2019-06-20T13:55:06.146Z,94.1
2019-06-20T13:56:13.414Z,99.9
2019-06-20T13:57:20.641Z,94.9
2019-06-20T13:58:27.601Z,95.6
2019-06-20T13:59:34.870Z,99.9
2019-06-20T14:00:43.445Z,99.9
2019-06-20T14:02:05.775Z,89.2
2019-06-20T14:03:13.483Z,96.9
2019-06-20T14:04:20.718Z,99.3
2019-06-20T14:05:27.978Z,84.6
2019-06-20T14:06:35.248Z,84.3
2019-06-20T14:07:46.708Z,79
2019-06-20T14:09:02.254Z,63.8
2019-06-20T14:10:09.489Z,58.6
2019-06-20T14:11:16.742Z,66.1
2019-06-20T14:12:23.731Z,53.8
2019-06-20T14:13:30.399Z,36.6
2019-06-20T14:14:37.633Z,62.8
2019-06-20T14:15:46.031Z,46
2019-06-20T14:16:54.801Z,59.2
2019-06-20T14:18:02.057Z,66.7
2019-06-20T14:19:09.300Z,63.4
2019-06-20T14:20:16.531Z,30.1
2019-06-20T14:21:23.764Z,14.3
2019-06-20T14:22:30.984Z,26.3
2019-06-20T14:23:38.238Z,23.7
2019-06-20T14:24:48.138Z,27.1
2019-06-20T14:25:56.808Z,34.3
2019-06-20T14:27:05.467Z,31.3
2019-06-20T14:28:12.820Z,46.8
2019-06-20T14:29:19.773Z,59.9
2019-06-20T14:30:27.035Z,25.9
2019-06-20T14:31:34.055Z,42.8
2019-06-20T14:32:43.016Z,29.5
2019-06-20T14:33:50.735Z,18.3
2019-06-20T14:34:58.026Z,23.6
2019-06-20T14:36:05.017Z,26
2019-06-20T14:37:12.262Z,30.9
2019-06-20T14:38:19.676Z,48.2
2019-06-20T14:39:26.988Z,47.5
2019-06-20T14:40:34.243Z,62.8
2019-06-20T14:41:42.039Z,72.6
2019-06-20T14:42:52.662Z,76.4
2019-06-20T14:44:01.168Z,87.2
2019-06-20T14:45:08.400Z,85.1
2019-06-20T14:46:15.692Z,91
2019-06-20T14:47:22.930Z,91.8
2019-06-20T14:48:30.179Z,93
2019-06-20T14:49:37.402Z,89.3
2019-06-20T14:50:46.258Z,90
2019-06-20T14:51:59.195Z,91.7
2019-06-20T14:53:06.439Z,92.5
2019-06-20T14:54:13.470Z,79.7
2019-06-20T14:55:20.731Z,76.9
2019-06-20T14:56:27.657Z,83.3
2019-06-20T14:57:34.897Z,90.4
2019-06-20T14:58:44.692Z,92.5
2019-06-20T14:59:54.533Z,89.1
2019-06-20T15:01:01.776Z,88.6
2019-06-20T15:02:09.018Z,88.8
2019-06-20T15:03:16.302Z,89.3
2019-06-20T15:04:23.529Z,90
2019-06-20T15:05:30.760Z,89.2
2019-06-20T15:06:41.587Z,91.6
2019-06-20T15:07:53.801Z,82.8
2019-06-20T15:09:05.920Z,79.2
2019-06-20T15:10:13.290Z,77.8
2019-06-20T15:11:20.263Z,84.1
2019-06-20T15:12:27.492Z,81.9
2019-06-20T15:13:34.469Z,86.1
2019-06-20T15:14:41.420Z,83.5
2019-06-20T15:15:49.506Z,74.1
2019-06-20T15:16:58.977Z,73
2019-06-20T15:18:06.215Z,66.3
2019-06-20T15:19:13.438Z,67.1
2019-06-20T15:20:19.857Z,57.4
2019-06-20T15:21:26.539Z,61.6
2019-06-20T15:22:33.776Z,59.6
2019-06-20T15:23:41.001Z,68.5
2019-06-20T15:24:50.276Z,69.9